• Join FlightAware (Why Join?)
  • Login
  • US Flag 
05:32PM EDT


 

Airport Tracker/Info


-or-


 

Live Flight TrackerFlight Track Log ✈ WEW1540 ✈ 09-May-2013 ✈ CYKY - CYYN

Flight Track Log - Related Links

Times and Time Zones

All times are in EDT time to prevent confusion due to time zone crossing. See the WEW1540 flight status page for this flight to view local times or setup timezone preferences in your user account.

Time Position Orientation Groundspeed Altitude Reporting Facility
EDT Latitude Longitude Course Direction KTS MPH feet Rate Location/Type
07:10PM 51.3667 -109.1167 142° Southeast 130 150 9,000  Level Winnipeg Center
07:11PM 51.3500 -109.0667 118° Southeast 180 207 9,100  Climbing Winnipeg Center
07:12PM 51.3000 -109.0167 148° Southeast 190 219 9,100  Level Winnipeg Center
07:13PM 51.2667 -108.9667 137° Southeast 180 207 9,100  Level Winnipeg Center
07:14PM 51.2333 -108.9000 129° Southeast 190 219 9,100  Level Winnipeg Center
07:15PM 51.1444 -108.7162 142° Southeast  Level Estimated
07:15PM 51.1833 -108.8333 140° Southeast 190 219 9,100  Level Winnipeg Center
07:16PM 51.1333 -108.7833 148° Southeast 190 219 9,100  Level Winnipeg Center
07:17PM 51.1000 -108.7333 137° Southeast 190 219 9,100 -60 Level Winnipeg Center
07:18PM 51.0667 -108.6667 128° Southeast 190 219 9,000 -60 Descending Winnipeg Center
07:19PM 51.0167 -108.6333 157° South 200 230 9,000  Level Winnipeg Center
07:20PM 50.9667 -108.5667 140° Southeast 190 219 9,000  Level Winnipeg Center
07:21PM 50.9500 -108.5000 112° Southeast 190 219 9,000  Level Winnipeg Center
07:22PM 50.9000 -108.4667 157° South 190 219 9,000  Level Winnipeg Center
07:23PM 50.8500 -108.4000 140° Southeast 190 219 9,000  Level Winnipeg Center
07:24PM 50.8167 -108.3667 148° Southeast 190 219 9,000  Level Winnipeg Center
07:25PM 50.7833 -108.3167 137° Southeast 180 207 9,000  Level Winnipeg Center
07:27PM 50.7174 -108.2203 137° Southeast  Level FlightAware Approximate
07:34PM 50.4623 -107.8870 143° Southeast  Level FlightAware Approximate
07:35PM 50.4244 -107.8425 143° Southeast  Level FlightAware Approximate
07:36PM 50.3862 -107.7989 144° Southeast  Level FlightAware Approximate
07:37PM 50.3478 -107.7557 144° Southeast  Level FlightAware Approximate
07:38PM 50.3094 -107.7125 144° Southeast  Level FlightAware Approximate
07:39PM 50.2919 -107.6906 144° Southeast  Level Estimated
07:40PM 50.2919 -107.6906 144° Southeast  Level Estimated
07:41PM 50.2919 -107.6906 144° Southeast  Level Estimated
07:42PM 50.2919 -107.6906 144° Southeast  Level Estimated
07:43PM 50.2919 -107.6906 144° Southeast  Level Estimated
07:44PM 50.2919 -107.6906 144° Southeast  Level Estimated